Time;durP1;ratioP1;P1;durP2;ratioP2;P2;SDS_P1;SDS_P2;PMS_P1;PMS_P2;Temp;Humidity;BMP_temperature;BMP_pressure;BME280_temperature;BME280_humidity;BME280_pressure;Samples;Min_cycle;Max_cycle;Signal;HPM_P1;HPM_P2
2022/11/21 00:01:38;;;;;;;1.50;1.40;;;;;9.60;98179.00;;;;16591970;28;20293;-47
2022/11/21 00:09:41;;;;;;;1.20;1.10;;;;;9.50;98163.00;;;;16593642;28;20242;-48
2022/11/21 00:17:45;;;;;;;2.23;1.67;;;;;9.40;98157.00;;;;16590548;28;20231;-48
2022/11/21 00:25:47;;;;;;;1.43;0.83;;;;;9.40;98148.00;;;;16589137;28;20261;-48
2022/11/21 00:33:51;;;;;;;4.17;2.50;;;;;9.40;98119.00;;;;16588757;28;20250;-47
2022/11/21 00:41:54;;;;;;;3.57;3.00;;;;;9.40;98116.00;;;;16585341;28;20246;-48
2022/11/21 00:49:58;;;;;;;0.60;0.60;;;;;9.20;98113.00;;;;16586624;28;20289;-47
2022/11/21 00:58:00;;;;;;;0.70;0.60;;;;;9.20;98113.00;;;;16587646;28;20231;-48
2022/11/21 01:06:06;;;;;;;1.43;0.60;;;;;9.10;98090.00;;;;16588163;28;20238;-46
2022/11/21 01:14:08;;;;;;;1.00;0.50;;;;;8.80;98106.00;;;;16587835;28;20910;-47
2022/11/21 01:22:12;;;;;;;0.50;0.50;;;;;9.10;98096.00;;;;16586516;28;20214;-48
2022/11/21 01:30:16;;;;;;;0.73;0.60;;;;;9.30;98087.00;;;;16585269;28;20305;-49
2022/11/21 01:38:20;;;;;;;1.83;0.70;;;;;9.20;98081.00;;;;16585095;28;20313;-48
2022/11/21 01:46:23;;;;;;;0.80;0.80;;;;;8.80;98090.00;;;;16583335;28;20241;-47
2022/11/21 01:54:30;;;;;;;1.37;1.03;;;;;8.50;98064.00;;;;16584442;28;20223;-47
2022/11/21 02:02:35;;;;;;;0.83;0.83;;;;;8.90;98070.00;;;;16585971;28;20219;-46
2022/11/21 02:10:41;;;;;;;2.17;1.17;;;;;8.80;98062.00;;;;16582672;28;20231;-46
2022/11/21 02:18:44;;;;;;;0.93;0.93;;;;;8.80;98058.00;;;;16605375;28;20280;-46
2022/11/21 02:26:49;;;;;;;0.80;0.80;;;;;8.30;98064.00;;;;16597127;28;20298;-46
2022/11/21 02:34:51;;;;;;;1.13;0.90;;;;;8.70;98056.00;;;;16598566;28;20307;-46
2022/11/21 02:43:01;;;;;;;1.60;1.10;;;;;8.80;98050.00;;;;16597396;28;20233;-46
2022/11/21 02:51:04;;;;;;;0.87;0.70;;;;;8.80;98055.00;;;;16595150;28;20703;-46
2022/11/21 02:59:08;;;;;;;0.73;0.73;;;;;8.80;98049.00;;;;16605043;28;20280;-46
2022/11/21 03:07:10;;;;;;;1.03;0.93;;;;;9.00;98015.00;;;;16614202;28;20242;-47
2022/11/21 03:15:15;;;;;;;1.40;0.70;;;;;8.90;98010.00;;;;16605727;28;20381;-47
2022/11/21 03:23:18;;;;;;;1.00;0.80;;;;;8.80;98006.00;;;;16601956;28;20208;-46
2022/11/21 03:31:22;;;;;;;1.13;0.80;;;;;9.10;98004.00;;;;16606281;28;20647;-46
2022/11/21 03:39:24;;;;;;;1.33;0.73;;;;;9.00;98025.00;;;;16605304;28;20258;-47
2022/11/21 03:47:28;;;;;;;1.67;0.63;;;;;8.90;98018.00;;;;16602518;28;20252;-47
2022/11/21 03:55:30;;;;;;;1.13;0.97;;;;;8.70;98012.00;;;;16614796;28;20254;-47
2022/11/21 04:03:34;;;;;;;0.70;0.70;;;;;8.60;98024.00;;;;16611844;28;20276;-46
2022/11/21 04:11:37;;;;;;;0.70;0.70;;;;;9.00;98003.00;;;;16607169;28;20701;-47
2022/11/21 04:19:41;;;;;;;0.80;0.80;;;;;9.00;98005.00;;;;16611287;28;20264;-47
2022/11/21 04:27:43;;;;;;;1.73;1.63;;;;;9.30;97995.00;;;;16608012;28;20247;-47
2022/11/21 04:35:48;;;;;;;1.13;0.70;;;;;9.80;97987.00;;;;16602626;28;20725;-47
2022/11/21 04:43:50;;;;;;;6.13;5.10;;;;;9.20;98014.00;;;;16601915;28;20695;-47
2022/11/21 04:51:54;;;;;;;1.00;0.90;;;;;9.20;98010.00;;;;16603428;28;20223;-47
2022/11/21 04:59:57;;;;;;;2.00;1.20;;;;;10.00;97988.00;;;;16606192;28;20301;-46
2022/11/21 05:08:00;;;;;;;1.53;0.93;;;;;9.30;97994.00;;;;16610883;28;20844;-47
2022/11/21 05:16:03;;;;;;;1.17;1.10;;;;;10.00;97995.00;;;;16606483;28;20272;-47
2022/11/21 05:24:08;;;;;;;1.00;1.00;;;;;9.70;97993.00;;;;16611952;28;20256;-47
2022/11/21 05:32:10;;;;;;;1.17;1.10;;;;;9.50;98002.00;;;;16606061;28;20304;-46
2022/11/21 05:40:15;;;;;;;1.03;0.93;;;;;9.50;98007.00;;;;16610969;28;20357;-47
2022/11/21 05:48:18;;;;;;;1.30;1.00;;;;;9.60;98025.00;;;;16599589;28;20215;-47
2022/11/21 05:56:22;;;;;;;31.20;11.27;;;;;9.40;98029.00;;;;16602192;28;20313;-47
2022/11/21 06:04:25;;;;;;;3.70;2.00;;;;;9.20;98038.00;;;;16605419;28;20216;-46
2022/11/21 06:12:29;;;;;;;11.13;7.20;;;;;8.90;98035.00;;;;16605344;28;20281;-47
2022/11/21 06:20:31;;;;;;;11.63;8.20;;;;;9.60;98023.00;;;;16617677;28;20223;-46
2022/11/21 06:28:37;;;;;;;10.20;7.87;;;;;9.30;98033.00;;;;16623919;28;20222;-47
2022/11/21 06:36:40;;;;;;;2.70;2.00;;;;;9.60;98039.00;;;;16608848;28;20226;-47
2022/11/21 06:44:43;;;;;;;8.67;6.00;;;;;9.70;98031.00;;;;16624198;28;20847;-48
2022/11/21 06:52:46;;;;;;;7.27;5.47;;;;;10.00;98039.00;;;;16605360;28;20242;-47
2022/11/21 07:00:50;;;;;;;1.70;1.37;;;;;9.40;98052.00;;;;16606458;28;20346;-46
2022/11/21 07:08:54;;;;;;;6.43;3.03;;;;;9.20;98046.00;;;;16605324;28;20774;-47
2022/11/21 07:16:58;;;;;;;0.90;0.90;;;;;9.40;98041.00;;;;16620024;28;20619;-46
2022/11/21 07:25:00;;;;;;;2.20;0.97;;;;;9.30;98034.00;;;;16624674;28;20198;-47
2022/11/21 07:33:05;;;;;;;1.37;1.27;;;;;9.40;98041.00;;;;16634904;28;20300;-46
2022/11/21 07:41:08;;;;;;;18.73;11.67;;;;;9.40;98037.00;;;;16635134;28;20238;-47
2022/11/21 07:49:12;;;;;;;9.20;7.80;;;;;9.70;98029.00;;;;16634643;28;20634;-47
2022/11/21 07:57:14;;;;;;;3.47;2.07;;;;;9.50;98042.00;;;;16620612;28;20230;-47
2022/11/21 08:05:18;;;;;;;5.67;3.67;;;;;9.60;98031.00;;;;16625984;28;20221;-47
2022/11/21 08:13:21;;;;;;;2.03;1.40;;;;;9.40;98051.00;;;;16616171;28;20214;-48
2022/11/21 08:21:25;;;;;;;1.60;1.10;;;;;9.50;98029.00;;;;16622661;28;20217;-47
2022/11/21 08:29:27;;;;;;;7.27;3.50;;;;;9.90;98012.00;;;;16618073;28;20218;-48
2022/11/21 08:37:31;;;;;;;6.10;1.70;;;;;10.30;98016.00;;;;16582944;28;20369;-46
2022/11/21 08:45:34;;;;;;;2.70;1.77;;;;;10.50;98013.00;;;;16584040;28;20772;-46
2022/11/21 08:53:38;;;;;;;1.67;1.53;;;;;10.90;98008.00;;;;16556218;28;20303;-47
2022/11/21 09:01:40;;;;;;;2.80;1.60;;;;;11.50;97987.00;;;;16576229;28;20849;-47
2022/11/21 09:09:44;;;;;;;2.40;1.30;;;;;12.40;97969.00;;;;16593405;28;20480;-48
2022/11/21 09:18:06;;;;;;;6.90;2.07;;;;;13.50;97950.00;;;;16589489;28;20308;-48
2022/11/21 09:26:10;;;;;;;5.87;3.87;;;;;13.40;97947.00;;;;16575300;28;20218;-46
2022/11/21 09:34:13;;;;;;;7.80;5.80;;;;;14.30;97940.00;;;;16588188;28;20218;-47
2022/11/21 09:42:42;;;;;;;5.70;1.90;;;;;13.40;97949.00;;;;16575579;28;20238;-47
2022/11/21 09:50:48;;;;;;;3.63;2.13;;;;;12.90;97954.00;;;;16560613;28;20305;-47
2022/11/21 09:59:03;;;;;;;17.33;10.57;;;;;14.20;97930.00;;;;16589877;28;20732;-48
2022/11/21 10:07:09;;;;;;;5.47;1.67;;;;;12.10;97926.00;;;;16578313;28;20228;-48
2022/11/21 10:15:38;;;;;;;4.53;1.50;;;;;12.70;97901.00;;;;16602738;28;20234;-47
2022/11/21 10:24:00;;;;;;;4.00;1.40;;;;;12.40;97887.00;;;;16592487;28;20674;-47
2022/11/21 10:32:09;;;;;;;4.00;1.70;;;;;12.60;97881.00;;;;16593404;28;20797;-48
2022/11/21 10:40:20;;;;;;;3.00;1.40;;;;;12.10;97861.00;;;;16610122;28;20238;-48
2022/11/21 10:48:24;;;;;;;2.53;1.43;;;;;14.50;97845.00;;;;16615605;28;20265;-48
2022/11/21 10:56:28;;;;;;;3.60;1.60;;;;;14.00;97829.00;;;;16610536;28;20254;-48
2022/11/21 11:04:33;;;;;;;4.73;2.00;;;;;13.80;97812.00;;;;16620805;28;20199;-48
2022/11/21 11:21:16;;;;;;;6.73;1.57;;;;;14.00;97771.00;;;;16576988;28;20250;-47
2022/11/21 11:29:20;;;;;;;4.97;1.60;;;;;14.00;97757.00;;;;16618302;28;20219;-47
2022/11/21 11:37:30;;;;;;;4.07;1.77;;;;;13.00;97752.00;;;;16601596;28;20231;-48
2022/11/21 11:54:17;;;;;;;2.37;1.40;;;;;12.20;97744.00;;;;16615308;28;20229;-48
2022/11/21 12:02:23;;;;;;;4.80;1.20;;;;;12.60;97727.00;;;;16631044;28;20219;-47
2022/11/21 12:10:29;;;;;;;5.83;2.07;;;;;13.90;97706.00;;;;16631120;28;20895;-47
2022/11/21 12:18:36;;;;;;;5.27;1.70;;;;;13.70;97697.00;;;;16628408;28;20285;-47
2022/11/21 12:26:53;;;;;;;3.00;1.30;;;;;12.20;97696.00;;;;16622687;28;20322;-47
2022/11/21 12:35:18;;;;;;;2.13;1.27;;;;;13.80;97670.00;;;;16605445;28;20612;-47
2022/11/21 12:43:29;;;;;;;2.03;1.17;;;;;14.10;97645.00;;;;16618768;28;20201;-47
2022/11/21 13:00:20;;;;;;;3.67;2.03;;;;;14.40;97600.00;;;;16609329;28;20233;-47
2022/11/21 13:08:24;;;;;;;4.13;1.20;;;;;15.10;97574.00;;;;16625113;28;20231;-48
2022/11/21 13:16:36;;;;;;;1.80;1.00;;;;;13.90;97559.00;;;;16610845;28;20223;-47
2022/11/21 13:24:58;;;;;;;4.23;1.53;;;;;14.90;97548.00;;;;16634516;28;20196;-48
2022/11/21 13:33:02;;;;;;;5.70;1.60;;;;;18.20;97509.00;;;;16599533;28;20227;-48
2022/11/21 13:49:32;;;;;;;6.00;1.90;;;;;16.00;97512.00;;;;16606830;28;20231;-47
2022/11/21 13:57:49;;;;;;;3.67;1.10;;;;;15.90;97488.00;;;;16615546;28;20227;-47
2022/11/21 14:06:15;;;;;;;6.60;2.50;;;;;16.20;97481.00;;;;16635606;28;20219;-46
2022/11/21 14:14:36;;;;;;;3.67;1.50;;;;;15.70;97469.00;;;;16626403;28;20295;-47
2022/11/21 14:22:42;;;;;;;4.43;1.90;;;;;15.50;97459.00;;;;16609553;28;20714;-47
2022/11/21 14:30:45;;;;;;;3.47;3.10;;;;;14.90;97466.00;;;;16610464;28;20215;-48
2022/11/21 14:38:51;;;;;;;6.53;2.30;;;;;14.60;97459.00;;;;16617430;28;20231;-47
2022/11/21 14:47:08;;;;;;;7.20;1.70;;;;;14.30;97440.00;;;;16604081;28;20227;-47
2022/11/21 14:55:24;;;;;;;14.63;7.00;;;;;14.20;97420.00;;;;16609909;28;20222;-47
2022/11/21 15:03:27;;;;;;;6.10;1.90;;;;;13.90;97405.00;;;;16592605;28;20281;-48
2022/11/21 15:11:35;;;;;;;10.90;3.50;;;;;13.70;97377.00;;;;16596212;28;20237;-47
2022/11/21 15:19:37;;;;;;;14.87;7.90;;;;;13.60;97358.00;;;;16581030;28;20309;-47
2022/11/21 15:27:41;;;;;;;14.83;8.70;;;;;13.20;97336.00;;;;16605442;28;20571;-46
2022/11/21 15:35:54;;;;;;;10.13;6.47;;;;;11.90;97318.00;;;;16591831;28;20693;-46
2022/11/21 15:44:22;;;;;;;8.20;3.87;;;;;10.20;97323.00;;;;16593735;28;20235;-46
2022/11/21 15:52:24;;;;;;;8.07;4.87;;;;;10.20;97298.00;;;;16599186;28;20226;-47
2022/11/21 16:00:28;;;;;;;11.03;6.10;;;;;9.50;97297.00;;;;16611010;28;20392;-46
2022/11/21 16:08:31;;;;;;;6.43;3.67;;;;;9.50;97282.00;;;;16607773;28;20230;-47
2022/11/21 16:16:37;;;;;;;5.43;3.50;;;;;9.10;97278.00;;;;16571741;28;20309;-46
2022/11/21 16:24:39;;;;;;;5.27;4.17;;;;;8.70;97259.00;;;;16592428;28;20207;-46
2022/11/21 16:32:43;;;;;;;8.37;3.30;;;;;8.70;97246.00;;;;16584787;28;20330;-45
2022/11/21 16:40:54;;;;;;;6.03;4.27;;;;;8.30;97219.00;;;;16581341;28;20249;-47
2022/11/21 16:49:03;;;;;;;8.07;3.93;;;;;8.40;97203.00;;;;16615208;28;20219;-47
2022/11/21 16:57:06;;;;;;;7.67;4.10;;;;;8.00;97215.00;;;;16631241;28;20922;-46
2022/11/21 17:05:10;;;;;;;12.00;7.07;;;;;8.20;97211.00;;;;16619134;28;20203;-47
2022/11/21 17:13:13;;;;;;;12.60;6.40;;;;;9.30;97176.00;;;;16605213;28;20825;-48
2022/11/21 17:21:17;;;;;;;5.47;4.30;;;;;8.90;97180.00;;;;16638705;28;20868;-47
2022/11/21 17:29:19;;;;;;;6.50;5.40;;;;;8.90;97168.00;;;;16639574;28;20293;-47
2022/11/21 17:37:23;;;;;;;4.73;3.70;;;;;9.80;97161.00;;;;16636962;28;20218;-46
2022/11/21 17:45:26;;;;;;;10.30;4.43;;;;;10.20;97123.00;;;;16630036;28;20253;-47
2022/11/21 17:53:31;;;;;;;10.27;5.40;;;;;9.80;97112.00;;;;16638390;28;20198;-45
2022/11/21 18:01:34;;;;;;;8.00;4.73;;;;;10.20;97105.00;;;;16612668;28;20227;-46
2022/11/21 18:09:38;;;;;;;5.23;4.73;;;;;10.20;97103.00;;;;16603765;28;20670;-46
2022/11/21 18:17:40;;;;;;;6.40;4.30;;;;;10.20;97093.00;;;;16595604;28;20706;-47
2022/11/21 18:25:44;;;;;;;10.50;7.77;;;;;9.40;97090.00;;;;16597895;28;20223;-47
2022/11/21 18:33:49;;;;;;;8.50;7.50;;;;;9.00;97081.00;;;;16621862;28;20218;-47
2022/11/21 18:41:53;;;;;;;10.40;7.13;;;;;8.10;97105.00;;;;16610177;28;20231;-47
2022/11/21 18:49:55;;;;;;;13.90;10.83;;;;;8.20;97099.00;;;;16598550;28;20305;-46
2022/11/21 18:57:59;;;;;;;11.10;8.53;;;;;9.00;97085.00;;;;16614163;28;20295;-48
2022/11/21 19:06:02;;;;;;;5.17;4.67;;;;;8.10;97070.00;;;;16624948;28;20354;-47
2022/11/21 19:14:06;;;;;;;8.13;6.20;;;;;8.80;97062.00;;;;16623654;28;20211;-47
2022/11/21 19:22:08;;;;;;;7.20;4.90;;;;;8.40;97063.00;;;;16624280;28;20824;-47
2022/11/21 19:30:13;;;;;;;9.37;6.53;;;;;8.20;97049.00;;;;16633067;28;20225;-47
2022/11/21 19:38:16;;;;;;;10.03;5.40;;;;;8.60;97042.00;;;;16612615;28;20777;-47
2022/11/21 19:46:21;;;;;;;9.90;5.47;;;;;8.60;97033.00;;;;16636890;28;20689;-47
2022/11/21 19:54:24;;;;;;;7.50;6.10;;;;;8.70;97023.00;;;;16626700;28;20852;-47
2022/11/21 20:02:28;;;;;;;11.17;7.30;;;;;8.20;97022.00;;;;16636759;28;20313;-46
2022/11/21 20:10:32;;;;;;;13.30;7.50;;;;;8.40;97011.00;;;;16605156;28;20219;-47
2022/11/21 20:18:36;;;;;;;8.43;6.50;;;;;8.00;97020.00;;;;16603534;28;20310;-47
2022/11/21 20:26:39;;;;;;;10.47;6.90;;;;;8.00;97031.00;;;;16603331;28;20306;-47
2022/11/21 20:34:43;;;;;;;10.30;6.73;;;;;8.30;97033.00;;;;16605312;28;20246;-47
2022/11/21 20:42:46;;;;;;;8.70;7.33;;;;;8.10;97048.00;;;;16606371;28;20254;-47
2022/11/21 20:50:54;;;;;;;12.17;8.20;;;;;8.60;97040.00;;;;16621589;28;20287;-48
2022/11/21 20:58:56;;;;;;;11.23;8.50;;;;;9.90;97019.00;;;;16604282;28;20250;-47
2022/11/21 21:07:00;;;;;;;10.07;8.77;;;;;9.90;97009.00;;;;16601284;28;20793;-46
2022/11/21 21:15:03;;;;;;;26.20;19.17;;;;;10.20;96999.00;;;;16603737;28;20231;-48
2022/11/21 21:23:07;;;;;;;17.27;14.27;;;;;8.90;97012.00;;;;16601123;28;20218;-46
2022/11/21 21:31:10;;;;;;;16.67;11.63;;;;;9.60;96987.00;;;;16595939;28;20250;-47
2022/11/21 21:39:14;;;;;;;14.60;13.07;;;;;9.30;96996.00;;;;16601801;28;20235;-47
2022/11/21 21:47:20;;;;;;;10.43;7.83;;;;;9.70;96978.00;;;;16609484;28;20272;-47
2022/11/21 21:55:23;;;;;;;24.70;14.87;;;;;8.80;96987.00;;;;16622033;28;20243;-47
2022/11/21 22:03:26;;;;;;;12.77;8.20;;;;;8.70;96988.00;;;;16614032;28;20338;-47
2022/11/21 22:11:32;;;;;;;9.60;6.57;;;;;9.80;96973.00;;;;16606064;28;20318;-46
2022/11/21 22:19:34;;;;;;;7.97;6.17;;;;;10.20;96979.00;;;;16606423;28;20304;-47
2022/11/21 22:27:38;;;;;;;13.10;8.13;;;;;10.00;96990.00;;;;16603998;28;20287;-47
2022/11/21 22:35:41;;;;;;;10.87;5.83;;;;;10.40;96997.00;;;;16593298;28;20647;-47
2022/11/21 22:43:48;;;;;;;5.23;3.10;;;;;10.70;96984.00;;;;16590739;28;20698;-47
2022/11/21 22:51:51;;;;;;;6.93;3.97;;;;;11.00;96971.00;;;;16602259;28;20726;-47
2022/11/21 22:59:55;;;;;;;7.37;5.27;;;;;11.00;96977.00;;;;16592425;28;20250;-47
2022/11/21 23:07:57;;;;;;;6.97;4.17;;;;;10.60;96985.00;;;;16582239;28;20237;-47
2022/11/21 23:16:01;;;;;;;7.90;4.73;;;;;10.60;96970.00;;;;16585193;28;20306;-47
2022/11/21 23:24:04;;;;;;;5.87;4.80;;;;;10.80;96945.00;;;;16592427;28;20612;-46
2022/11/21 23:32:08;;;;;;;9.27;5.00;;;;;10.30;96922.00;;;;16594139;28;20231;-47
2022/11/21 23:40:11;;;;;;;11.67;7.13;;;;;10.60;96937.00;;;;16593184;28;20317;-47
2022/11/21 23:48:15;;;;;;;8.03;6.07;;;;;10.30;96936.00;;;;16594402;28;20219;-47
2022/11/21 23:56:18;;;;;;;7.43;5.00;;;;;10.40;96946.00;;;;16592134;28;20266;-47
